sensor_id;sensor_type;location;lat;lon;timestamp;temperature;humidity
39255;DHT22;24957;51.386;-2.352;2022-07-10T00:00:31;18.50;79.10
39255;DHT22;24957;51.386;-2.352;2022-07-10T00:02:57;18.50;80.10
39255;DHT22;24957;51.386;-2.352;2022-07-10T00:05:23;18.40;79.40
39255;DHT22;24957;51.386;-2.352;2022-07-10T00:07:49;18.40;80.10
39255;DHT22;24957;51.386;-2.352;2022-07-10T00:10:15;18.30;80.20
39255;DHT22;24957;51.386;-2.352;2022-07-10T00:12:40;18.30;81.20
39255;DHT22;24957;51.386;-2.352;2022-07-10T00:15:06;18.20;81.90
39255;DHT22;24957;51.386;-2.352;2022-07-10T00:17:32;18.20;82.20
39255;DHT22;24957;51.386;-2.352;2022-07-10T00:19:58;18.30;81.20
39255;DHT22;24957;51.386;-2.352;2022-07-10T00:22:24;18.20;82.60
39255;DHT22;24957;51.386;-2.352;2022-07-10T00:24:49;18.10;82.70
39255;DHT22;24957;51.386;-2.352;2022-07-10T00:27:18;18.00;84.10
39255;DHT22;24957;51.386;-2.352;2022-07-10T00:29:43;17.90;84.20
39255;DHT22;24957;51.386;-2.352;2022-07-10T00:32:09;17.70;86.00
39255;DHT22;24957;51.386;-2.352;2022-07-10T00:34:35;17.70;86.10
39255;DHT22;24957;51.386;-2.352;2022-07-10T00:37:01;17.70;86.00
39255;DHT22;24957;51.386;-2.352;2022-07-10T00:39:30;17.90;85.40
39255;DHT22;24957;51.386;-2.352;2022-07-10T00:42:05;17.70;86.40
39255;DHT22;24957;51.386;-2.352;2022-07-10T00:44:31;17.70;88.10
39255;DHT22;24957;51.386;-2.352;2022-07-10T00:46:57;17.50;88.40
39255;DHT22;24957;51.386;-2.352;2022-07-10T00:49:22;17.40;88.70
39255;DHT22;24957;51.386;-2.352;2022-07-10T00:51:48;17.30;91.00
39255;DHT22;24957;51.386;-2.352;2022-07-10T00:54:13;17.20;91.20
39255;DHT22;24957;51.386;-2.352;2022-07-10T00:56:39;17.10;91.60
39255;DHT22;24957;51.386;-2.352;2022-07-10T00:59:04;17.10;90.50
39255;DHT22;24957;51.386;-2.352;2022-07-10T01:01:31;17.20;90.80
39255;DHT22;24957;51.386;-2.352;2022-07-10T01:03:57;17.20;91.40
39255;DHT22;24957;51.386;-2.352;2022-07-10T01:06:23;17.30;91.60
39255;DHT22;24957;51.386;-2.352;2022-07-10T01:08:48;17.10;91.60
39255;DHT22;24957;51.386;-2.352;2022-07-10T01:11:15;17.00;92.10
39255;DHT22;24957;51.386;-2.352;2022-07-10T01:13:41;16.80;92.60
39255;DHT22;24957;51.386;-2.352;2022-07-10T01:16:07;16.80;93.40
39255;DHT22;24957;51.386;-2.352;2022-07-10T01:18:32;16.70;93.40
39255;DHT22;24957;51.386;-2.352;2022-07-10T01:20:58;16.70;94.20
39255;DHT22;24957;51.386;-2.352;2022-07-10T01:23:24;16.70;94.00
39255;DHT22;24957;51.386;-2.352;2022-07-10T01:25:52;16.60;92.70
39255;DHT22;24957;51.386;-2.352;2022-07-10T01:28:20;16.70;93.60
39255;DHT22;24957;51.386;-2.352;2022-07-10T01:30:47;16.70;94.00
39255;DHT22;24957;51.386;-2.352;2022-07-10T01:33:12;16.60;94.40
39255;DHT22;24957;51.386;-2.352;2022-07-10T01:35:38;16.50;95.00
39255;DHT22;24957;51.386;-2.352;2022-07-10T01:38:04;16.40;96.10
39255;DHT22;24957;51.386;-2.352;2022-07-10T01:40:29;16.30;96.50
39255;DHT22;24957;51.386;-2.352;2022-07-10T01:42:55;16.20;97.50
39255;DHT22;24957;51.386;-2.352;2022-07-10T01:45:21;16.20;98.40
39255;DHT22;24957;51.386;-2.352;2022-07-10T01:47:46;16.10;99.40
39255;DHT22;24957;51.386;-2.352;2022-07-10T01:50:12;16.00;99.90
39255;DHT22;24957;51.386;-2.352;2022-07-10T01:52:37;16.00;99.70
39255;DHT22;24957;51.386;-2.352;2022-07-10T01:55:04;16.00;99.90
39255;DHT22;24957;51.386;-2.352;2022-07-10T01:57:30;16.00;99.90
39255;DHT22;24957;51.386;-2.352;2022-07-10T01:59:55;16.00;99.70
39255;DHT22;24957;51.386;-2.352;2022-07-10T02:02:21;15.90;99.90
39255;DHT22;24957;51.386;-2.352;2022-07-10T02:04:47;15.80;99.90
39255;DHT22;24957;51.386;-2.352;2022-07-10T02:07:13;15.80;99.90
39255;DHT22;24957;51.386;-2.352;2022-07-10T02:09:39;15.90;99.90
39255;DHT22;24957;51.386;-2.352;2022-07-10T02:12:06;15.90;99.90
39255;DHT22;24957;51.386;-2.352;2022-07-10T02:14:32;15.90;99.90
39255;DHT22;24957;51.386;-2.352;2022-07-10T02:16:57;15.70;99.90
39255;DHT22;24957;51.386;-2.352;2022-07-10T02:19:23;15.70;99.90
39255;DHT22;24957;51.386;-2.352;2022-07-10T02:21:48;15.70;99.90
39255;DHT22;24957;51.386;-2.352;2022-07-10T02:24:14;15.70;99.90
39255;DHT22;24957;51.386;-2.352;2022-07-10T02:26:40;15.60;99.90
39255;DHT22;24957;51.386;-2.352;2022-07-10T02:29:05;15.60;99.90
39255;DHT22;24957;51.386;-2.352;2022-07-10T02:31:31;15.50;99.90
39255;DHT22;24957;51.386;-2.352;2022-07-10T02:34:00;15.40;99.90
39255;DHT22;24957;51.386;-2.352;2022-07-10T02:36:25;15.30;99.90
39255;DHT22;24957;51.386;-2.352;2022-07-10T02:38:51;15.30;99.90
39255;DHT22;24957;51.386;-2.352;2022-07-10T02:41:16;15.20;99.90
39255;DHT22;24957;51.386;-2.352;2022-07-10T02:43:42;15.20;99.90
39255;DHT22;24957;51.386;-2.352;2022-07-10T02:46:07;15.10;99.90
39255;DHT22;24957;51.386;-2.352;2022-07-10T02:48:33;15.10;99.90
39255;DHT22;24957;51.386;-2.352;2022-07-10T02:50:59;15.00;99.90
39255;DHT22;24957;51.386;-2.352;2022-07-10T02:53:25;15.10;99.90
39255;DHT22;24957;51.386;-2.352;2022-07-10T02:55:50;15.00;99.90
39255;DHT22;24957;51.386;-2.352;2022-07-10T02:58:16;15.20;99.90
39255;DHT22;24957;51.386;-2.352;2022-07-10T03:00:43;15.00;99.90
39255;DHT22;24957;51.386;-2.352;2022-07-10T03:03:08;14.90;99.90
39255;DHT22;24957;51.386;-2.352;2022-07-10T03:05:34;14.90;99.90
39255;DHT22;24957;51.386;-2.352;2022-07-10T03:08:00;14.80;99.90
39255;DHT22;24957;51.386;-2.352;2022-07-10T03:10:25;14.80;99.90
39255;DHT22;24957;51.386;-2.352;2022-07-10T03:12:51;14.80;99.90
39255;DHT22;24957;51.386;-2.352;2022-07-10T03:15:16;14.80;99.90
39255;DHT22;24957;51.386;-2.352;2022-07-10T03:17:42;14.70;99.90
39255;DHT22;24957;51.386;-2.352;2022-07-10T03:20:07;14.70;99.90
39255;DHT22;24957;51.386;-2.352;2022-07-10T03:22:34;14.70;99.90
39255;DHT22;24957;51.386;-2.352;2022-07-10T03:24:59;14.70;99.90
39255;DHT22;24957;51.386;-2.352;2022-07-10T03:27:25;14.70;99.90
39255;DHT22;24957;51.386;-2.352;2022-07-10T03:29:50;14.60;99.90
39255;DHT22;24957;51.386;-2.352;2022-07-10T03:32:16;14.50;99.90
39255;DHT22;24957;51.386;-2.352;2022-07-10T03:34:42;14.40;99.90
39255;DHT22;24957;51.386;-2.352;2022-07-10T03:37:07;14.40;99.90
39255;DHT22;24957;51.386;-2.352;2022-07-10T03:39:33;14.30;99.90
39255;DHT22;24957;51.386;-2.352;2022-07-10T03:41:59;14.40;99.90
39255;DHT22;24957;51.386;-2.352;2022-07-10T03:44:24;14.40;99.90
39255;DHT22;24957;51.386;-2.352;2022-07-10T03:46:50;14.20;99.90
39255;DHT22;24957;51.386;-2.352;2022-07-10T03:49:15;14.10;99.90
39255;DHT22;24957;51.386;-2.352;2022-07-10T03:51:41;14.00;99.90
39255;DHT22;24957;51.386;-2.352;2022-07-10T03:54:07;13.90;99.90
39255;DHT22;24957;51.386;-2.352;2022-07-10T03:56:32;13.80;99.90
39255;DHT22;24957;51.386;-2.352;2022-07-10T03:59:16;13.60;99.90
39255;DHT22;24957;51.386;-2.352;2022-07-10T04:01:42;13.60;99.90
39255;DHT22;24957;51.386;-2.352;2022-07-10T04:04:08;13.60;99.90
39255;DHT22;24957;51.386;-2.352;2022-07-10T04:06:33;13.50;99.90
39255;DHT22;24957;51.386;-2.352;2022-07-10T04:08:59;13.50;99.90
39255;DHT22;24957;51.386;-2.352;2022-07-10T04:11:24;13.50;99.90
39255;DHT22;24957;51.386;-2.352;2022-07-10T04:13:50;13.30;99.90
39255;DHT22;24957;51.386;-2.352;2022-07-10T04:16:15;13.10;99.90
39255;DHT22;24957;51.386;-2.352;2022-07-10T04:18:41;13.20;99.90
39255;DHT22;24957;51.386;-2.352;2022-07-10T04:21:07;13.20;99.90
39255;DHT22;24957;51.386;-2.352;2022-07-10T04:23:33;13.20;99.90
39255;DHT22;24957;51.386;-2.352;2022-07-10T04:25:58;13.30;99.90
39255;DHT22;24957;51.386;-2.352;2022-07-10T04:28:24;13.40;99.90
39255;DHT22;24957;51.386;-2.352;2022-07-10T04:30:50;13.30;99.90
39255;DHT22;24957;51.386;-2.352;2022-07-10T04:33:15;13.20;99.90
39255;DHT22;24957;51.386;-2.352;2022-07-10T04:35:41;13.30;99.90
39255;DHT22;24957;51.386;-2.352;2022-07-10T04:38:06;13.30;99.90
39255;DHT22;24957;51.386;-2.352;2022-07-10T04:40:32;13.50;99.90
39255;DHT22;24957;51.386;-2.352;2022-07-10T04:42:57;13.50;99.90
39255;DHT22;24957;51.386;-2.352;2022-07-10T04:45:23;13.50;99.90
39255;DHT22;24957;51.386;-2.352;2022-07-10T04:47:48;13.50;99.90
39255;DHT22;24957;51.386;-2.352;2022-07-10T04:50:14;13.50;99.90
39255;DHT22;24957;51.386;-2.352;2022-07-10T04:52:39;13.50;99.90
39255;DHT22;24957;51.386;-2.352;2022-07-10T04:55:05;13.50;99.90
39255;DHT22;24957;51.386;-2.352;2022-07-10T04:57:31;13.40;99.90
39255;DHT22;24957;51.386;-2.352;2022-07-10T04:59:56;13.40;99.90
39255;DHT22;24957;51.386;-2.352;2022-07-10T05:02:22;13.50;99.90
39255;DHT22;24957;51.386;-2.352;2022-07-10T05:04:48;13.50;99.90
39255;DHT22;24957;51.386;-2.352;2022-07-10T05:07:13;13.60;99.90
39255;DHT22;24957;51.386;-2.352;2022-07-10T05:09:40;13.60;99.90
39255;DHT22;24957;51.386;-2.352;2022-07-10T05:12:05;13.50;99.90
39255;DHT22;24957;51.386;-2.352;2022-07-10T05:14:31;13.40;99.90
39255;DHT22;24957;51.386;-2.352;2022-07-10T05:16:57;13.40;99.90
39255;DHT22;24957;51.386;-2.352;2022-07-10T05:19:22;13.40;99.90
39255;DHT22;24957;51.386;-2.352;2022-07-10T05:21:48;13.40;99.90
39255;DHT22;24957;51.386;-2.352;2022-07-10T05:24:14;13.30;99.90
39255;DHT22;24957;51.386;-2.352;2022-07-10T05:26:39;13.30;99.90
39255;DHT22;24957;51.386;-2.352;2022-07-10T05:29:05;13.30;99.90
39255;DHT22;24957;51.386;-2.352;2022-07-10T05:31:30;13.40;99.90
39255;DHT22;24957;51.386;-2.352;2022-07-10T05:33:56;13.40;99.90
39255;DHT22;24957;51.386;-2.352;2022-07-10T05:36:21;13.50;99.90
39255;DHT22;24957;51.386;-2.352;2022-07-10T05:38:47;13.60;99.90
39255;DHT22;24957;51.386;-2.352;2022-07-10T05:41:13;13.70;99.90
39255;DHT22;24957;51.386;-2.352;2022-07-10T05:43:38;13.80;99.90
39255;DHT22;24957;51.386;-2.352;2022-07-10T05:46:04;13.90;99.90
39255;DHT22;24957;51.386;-2.352;2022-07-10T05:48:31;14.10;99.90
39255;DHT22;24957;51.386;-2.352;2022-07-10T05:50:56;14.20;99.90
39255;DHT22;24957;51.386;-2.352;2022-07-10T05:53:22;14.20;99.90
39255;DHT22;24957;51.386;-2.352;2022-07-10T05:55:48;14.20;99.90
39255;DHT22;24957;51.386;-2.352;2022-07-10T05:58:13;14.30;99.90
39255;DHT22;24957;51.386;-2.352;2022-07-10T06:00:39;14.30;99.90
39255;DHT22;24957;51.386;-2.352;2022-07-10T06:03:05;14.40;99.90
39255;DHT22;24957;51.386;-2.352;2022-07-10T06:05:30;14.60;99.90
39255;DHT22;24957;51.386;-2.352;2022-07-10T06:07:56;14.70;99.90
39255;DHT22;24957;51.386;-2.352;2022-07-10T06:10:22;14.80;99.90
39255;DHT22;24957;51.386;-2.352;2022-07-10T06:12:47;14.90;99.90
39255;DHT22;24957;51.386;-2.352;2022-07-10T06:15:13;14.90;99.90
39255;DHT22;24957;51.386;-2.352;2022-07-10T06:17:38;15.00;99.90
39255;DHT22;24957;51.386;-2.352;2022-07-10T06:20:04;15.10;99.90
39255;DHT22;24957;51.386;-2.352;2022-07-10T06:22:30;15.40;99.90
39255;DHT22;24957;51.386;-2.352;2022-07-10T06:24:56;15.60;99.90
39255;DHT22;24957;51.386;-2.352;2022-07-10T06:27:22;15.60;99.90
39255;DHT22;24957;51.386;-2.352;2022-07-10T06:29:47;15.70;99.90
39255;DHT22;24957;51.386;-2.352;2022-07-10T06:32:13;15.90;99.90
39255;DHT22;24957;51.386;-2.352;2022-07-10T06:34:38;15.90;99.90
39255;DHT22;24957;51.386;-2.352;2022-07-10T06:37:04;16.00;99.90
39255;DHT22;24957;51.386;-2.352;2022-07-10T06:39:31;16.10;99.90
39255;DHT22;24957;51.386;-2.352;2022-07-10T06:41:59;16.20;99.90
39255;DHT22;24957;51.386;-2.352;2022-07-10T06:44:25;16.30;99.90
39255;DHT22;24957;51.386;-2.352;2022-07-10T06:46:51;16.40;99.90
39255;DHT22;24957;51.386;-2.352;2022-07-10T06:49:35;16.40;99.90
39255;DHT22;24957;51.386;-2.352;2022-07-10T06:52:01;16.60;99.90
39255;DHT22;24957;51.386;-2.352;2022-07-10T06:54:26;16.70;99.90
39255;DHT22;24957;51.386;-2.352;2022-07-10T06:56:52;16.90;99.90
39255;DHT22;24957;51.386;-2.352;2022-07-10T06:59:18;16.80;99.90
39255;DHT22;24957;51.386;-2.352;2022-07-10T07:01:43;16.80;99.90
39255;DHT22;24957;51.386;-2.352;2022-07-10T07:04:09;17.00;99.90
39255;DHT22;24957;51.386;-2.352;2022-07-10T07:06:34;17.00;99.90
39255;DHT22;24957;51.386;-2.352;2022-07-10T07:09:00;17.00;99.90
39255;DHT22;24957;51.386;-2.352;2022-07-10T07:11:26;17.10;99.90
39255;DHT22;24957;51.386;-2.352;2022-07-10T07:13:51;17.20;99.90
39255;DHT22;24957;51.386;-2.352;2022-07-10T07:16:17;17.30;99.90
39255;DHT22;24957;51.386;-2.352;2022-07-10T07:18:45;17.30;99.90
39255;DHT22;24957;51.386;-2.352;2022-07-10T07:21:17;17.40;99.90
39255;DHT22;24957;51.386;-2.352;2022-07-10T07:24:01;17.40;99.90
39255;DHT22;24957;51.386;-2.352;2022-07-10T07:26:29;17.50;99.90
39255;DHT22;24957;51.386;-2.352;2022-07-10T07:28:57;17.70;99.90
39255;DHT22;24957;51.386;-2.352;2022-07-10T07:31:23;17.80;99.90
39255;DHT22;24957;51.386;-2.352;2022-07-10T07:33:48;17.80;99.90
39255;DHT22;24957;51.386;-2.352;2022-07-10T07:36:14;18.00;99.90
39255;DHT22;24957;51.386;-2.352;2022-07-10T07:38:39;18.20;99.90
39255;DHT22;24957;51.386;-2.352;2022-07-10T07:41:05;18.40;99.90
39255;DHT22;24957;51.386;-2.352;2022-07-10T07:43:31;18.40;99.90
39255;DHT22;24957;51.386;-2.352;2022-07-10T07:45:56;18.40;99.90
39255;DHT22;24957;51.386;-2.352;2022-07-10T07:48:22;18.50;99.90
39255;DHT22;24957;51.386;-2.352;2022-07-10T07:50:47;18.50;99.90
39255;DHT22;24957;51.386;-2.352;2022-07-10T07:53:13;18.40;99.90
39255;DHT22;24957;51.386;-2.352;2022-07-10T07:55:39;18.50;99.90
39255;DHT22;24957;51.386;-2.352;2022-07-10T07:58:05;18.50;99.90
39255;DHT22;24957;51.386;-2.352;2022-07-10T08:00:30;18.60;99.90
39255;DHT22;24957;51.386;-2.352;2022-07-10T08:02:57;18.80;99.90
39255;DHT22;24957;51.386;-2.352;2022-07-10T08:05:22;18.70;99.90
39255;DHT22;24957;51.386;-2.352;2022-07-10T08:07:52;18.70;99.90
39255;DHT22;24957;51.386;-2.352;2022-07-10T08:10:18;18.70;99.90
39255;DHT22;24957;51.386;-2.352;2022-07-10T08:12:44;18.80;99.90
39255;DHT22;24957;51.386;-2.352;2022-07-10T08:15:14;19.10;99.90
39255;DHT22;24957;51.386;-2.352;2022-07-10T08:17:40;19.10;99.90
39255;DHT22;24957;51.386;-2.352;2022-07-10T08:20:06;19.10;99.90
39255;DHT22;24957;51.386;-2.352;2022-07-10T08:22:32;19.20;99.90
39255;DHT22;24957;51.386;-2.352;2022-07-10T08:24:58;19.20;99.90
39255;DHT22;24957;51.386;-2.352;2022-07-10T08:27:23;19.30;99.90
39255;DHT22;24957;51.386;-2.352;2022-07-10T08:29:49;19.40;99.90
39255;DHT22;24957;51.386;-2.352;2022-07-10T08:32:15;19.50;99.90
39255;DHT22;24957;51.386;-2.352;2022-07-10T08:34:40;19.50;99.90
39255;DHT22;24957;51.386;-2.352;2022-07-10T08:37:06;19.40;99.90
39255;DHT22;24957;51.386;-2.352;2022-07-10T08:39:32;19.50;99.90
39255;DHT22;24957;51.386;-2.352;2022-07-10T08:41:58;19.60;99.90
39255;DHT22;24957;51.386;-2.352;2022-07-10T08:44:23;19.80;99.90
39255;DHT22;24957;51.386;-2.352;2022-07-10T08:46:49;19.90;99.90
39255;DHT22;24957;51.386;-2.352;2022-07-10T08:49:15;20.10;99.90
39255;DHT22;24957;51.386;-2.352;2022-07-10T08:54:09;20.40;99.90
39255;DHT22;24957;51.386;-2.352;2022-07-10T08:56:38;20.30;99.90
39255;DHT22;24957;51.386;-2.352;2022-07-10T08:59:04;20.40;99.90
39255;DHT22;24957;51.386;-2.352;2022-07-10T09:01:30;20.40;99.90
39255;DHT22;24957;51.386;-2.352;2022-07-10T09:03:55;20.20;99.90
39255;DHT22;24957;51.386;-2.352;2022-07-10T09:06:21;20.20;99.90
39255;DHT22;24957;51.386;-2.352;2022-07-10T09:09:07;20.20;99.90
39255;DHT22;24957;51.386;-2.352;2022-07-10T09:11:33;20.50;99.90
39255;DHT22;24957;51.386;-2.352;2022-07-10T09:14:02;20.40;99.90
39255;DHT22;24957;51.386;-2.352;2022-07-10T09:16:33;20.50;99.90
39255;DHT22;24957;51.386;-2.352;2022-07-10T09:21:40;20.80;99.90
39255;DHT22;24957;51.386;-2.352;2022-07-10T09:24:07;20.90;99.90
39255;DHT22;24957;51.386;-2.352;2022-07-10T09:26:33;21.00;99.90
39255;DHT22;24957;51.386;-2.352;2022-07-10T09:29:06;21.00;99.90
39255;DHT22;24957;51.386;-2.352;2022-07-10T09:31:52;21.00;99.90
39255;DHT22;24957;51.386;-2.352;2022-07-10T09:34:18;21.10;99.90
39255;DHT22;24957;51.386;-2.352;2022-07-10T09:36:59;21.20;99.90
39255;DHT22;24957;51.386;-2.352;2022-07-10T09:39:50;21.30;99.90
39255;DHT22;24957;51.386;-2.352;2022-07-10T09:47:36;21.50;99.20
39255;DHT22;24957;51.386;-2.352;2022-07-10T09:50:02;21.70;98.50
39255;DHT22;24957;51.386;-2.352;2022-07-10T09:52:28;21.80;98.10
39255;DHT22;24957;51.386;-2.352;2022-07-10T09:54:54;21.90;98.00
39255;DHT22;24957;51.386;-2.352;2022-07-10T09:57:21;21.80;97.80
39255;DHT22;24957;51.386;-2.352;2022-07-10T09:59:48;21.70;97.70
39255;DHT22;24957;51.386;-2.352;2022-07-10T10:02:13;21.60;97.20
39255;DHT22;24957;51.386;-2.352;2022-07-10T10:04:39;21.70;97.10
39255;DHT22;24957;51.386;-2.352;2022-07-10T10:07:06;21.90;96.40
39255;DHT22;24957;51.386;-2.352;2022-07-10T10:09:38;22.00;95.60
39255;DHT22;24957;51.386;-2.352;2022-07-10T10:12:27;22.00;95.20
39255;DHT22;24957;51.386;-2.352;2022-07-10T10:14:54;22.10;95.10
39255;DHT22;24957;51.386;-2.352;2022-07-10T10:17:20;22.00;94.80
39255;DHT22;24957;51.386;-2.352;2022-07-10T10:19:47;22.20;94.80
39255;DHT22;24957;51.386;-2.352;2022-07-10T10:22:33;22.40;94.00
39255;DHT22;24957;51.386;-2.352;2022-07-10T10:24:59;22.60;92.60
39255;DHT22;24957;51.386;-2.352;2022-07-10T10:27:26;22.60;92.00
39255;DHT22;24957;51.386;-2.352;2022-07-10T10:29:52;22.50;90.40
39255;DHT22;24957;51.386;-2.352;2022-07-10T10:32:19;22.50;89.40
39255;DHT22;24957;51.386;-2.352;2022-07-10T10:34:45;22.50;87.90
39255;DHT22;24957;51.386;-2.352;2022-07-10T10:37:35;22.60;88.70
39255;DHT22;24957;51.386;-2.352;2022-07-10T10:40:01;22.70;86.60
39255;DHT22;24957;51.386;-2.352;2022-07-10T10:42:32;22.90;83.30
39255;DHT22;24957;51.386;-2.352;2022-07-10T10:48:15;23.00;81.60
39255;DHT22;24957;51.386;-2.352;2022-07-10T10:53:04;23.30;82.80
39255;DHT22;24957;51.386;-2.352;2022-07-10T10:55:29;23.30;86.10
39255;DHT22;24957;51.386;-2.352;2022-07-10T10:58:11;23.20;85.30
39255;DHT22;24957;51.386;-2.352;2022-07-10T11:00:37;23.40;84.80
39255;DHT22;24957;51.386;-2.352;2022-07-10T11:03:12;23.40;83.40
39255;DHT22;24957;51.386;-2.352;2022-07-10T11:05:39;23.50;82.80
39255;DHT22;24957;51.386;-2.352;2022-07-10T11:08:06;23.60;83.70
39255;DHT22;24957;51.386;-2.352;2022-07-10T11:13:05;23.90;83.00
39255;DHT22;24957;51.386;-2.352;2022-07-10T11:15:32;24.00;83.60
39255;DHT22;24957;51.386;-2.352;2022-07-10T11:18:05;24.00;83.60
39255;DHT22;24957;51.386;-2.352;2022-07-10T11:20:32;23.90;82.20
39255;DHT22;24957;51.386;-2.352;2022-07-10T11:28:06;23.70;82.90
39255;DHT22;24957;51.386;-2.352;2022-07-10T11:30:47;23.70;77.00
39255;DHT22;24957;51.386;-2.352;2022-07-10T11:33:14;23.70;76.20
39255;DHT22;24957;51.386;-2.352;2022-07-10T11:35:40;23.70;73.70
39255;DHT22;24957;51.386;-2.352;2022-07-10T11:38:05;23.80;71.30
39255;DHT22;24957;51.386;-2.352;2022-07-10T11:40:35;24.00;73.00
39255;DHT22;24957;51.386;-2.352;2022-07-10T11:43:01;24.20;71.10
39255;DHT22;24957;51.386;-2.352;2022-07-10T11:45:30;24.30;71.00
39255;DHT22;24957;51.386;-2.352;2022-07-10T11:47:56;24.40;69.90
39255;DHT22;24957;51.386;-2.352;2022-07-10T11:50:22;24.30;66.80
39255;DHT22;24957;51.386;-2.352;2022-07-10T11:52:48;24.50;67.40
39255;DHT22;24957;51.386;-2.352;2022-07-10T11:55:15;24.70;66.20
39255;DHT22;24957;51.386;-2.352;2022-07-10T11:57:41;24.70;65.40
39255;DHT22;24957;51.386;-2.352;2022-07-10T12:02:49;25.00;66.60
39255;DHT22;24957;51.386;-2.352;2022-07-10T12:08:16;25.00;60.40
39255;DHT22;24957;51.386;-2.352;2022-07-10T12:10:42;25.00;64.20
39255;DHT22;24957;51.386;-2.352;2022-07-10T12:18:00;25.30;59.40
39255;DHT22;24957;51.386;-2.352;2022-07-10T12:20:25;25.40;56.50
39255;DHT22;24957;51.386;-2.352;2022-07-10T12:22:52;25.50;56.30
39255;DHT22;24957;51.386;-2.352;2022-07-10T12:25:22;25.40;55.90
39255;DHT22;24957;51.386;-2.352;2022-07-10T12:27:48;25.40;52.60
39255;DHT22;24957;51.386;-2.352;2022-07-10T12:30:14;25.50;51.20
39255;DHT22;24957;51.386;-2.352;2022-07-10T12:32:39;25.60;51.40
39255;DHT22;24957;51.386;-2.352;2022-07-10T12:35:05;25.60;48.60
39255;DHT22;24957;51.386;-2.352;2022-07-10T12:37:46;25.60;48.50
39255;DHT22;24957;51.386;-2.352;2022-07-10T12:40:13;25.60;50.60
39255;DHT22;24957;51.386;-2.352;2022-07-10T12:43:00;25.60;49.80
39255;DHT22;24957;51.386;-2.352;2022-07-10T12:45:26;25.70;45.00
39255;DHT22;24957;51.386;-2.352;2022-07-10T12:47:51;25.70;48.80
39255;DHT22;24957;51.386;-2.352;2022-07-10T12:50:17;25.90;45.60
39255;DHT22;24957;51.386;-2.352;2022-07-10T12:52:43;26.00;43.90
39255;DHT22;24957;51.386;-2.352;2022-07-10T13:00:17;26.20;44.00
39255;DHT22;24957;51.386;-2.352;2022-07-10T13:02:44;26.30;43.90
39255;DHT22;24957;51.386;-2.352;2022-07-10T13:05:10;26.30;41.50
39255;DHT22;24957;51.386;-2.352;2022-07-10T13:07:35;26.60;45.60
39255;DHT22;24957;51.386;-2.352;2022-07-10T13:10:02;26.70;48.90
39255;DHT22;24957;51.386;-2.352;2022-07-10T13:12:28;26.70;47.50
39255;DHT22;24957;51.386;-2.352;2022-07-10T13:14:54;26.70;47.00
39255;DHT22;24957;51.386;-2.352;2022-07-10T13:17:19;27.10;47.10
39255;DHT22;24957;51.386;-2.352;2022-07-10T13:19:45;27.40;47.60
39255;DHT22;24957;51.386;-2.352;2022-07-10T13:22:11;27.60;47.50
39255;DHT22;24957;51.386;-2.352;2022-07-10T13:24:37;27.80;48.60
39255;DHT22;24957;51.386;-2.352;2022-07-10T13:27:03;28.00;49.00
39255;DHT22;24957;51.386;-2.352;2022-07-10T13:29:28;27.80;50.30
39255;DHT22;24957;51.386;-2.352;2022-07-10T13:31:54;27.60;51.70
39255;DHT22;24957;51.386;-2.352;2022-07-10T13:34:20;27.30;52.30
39255;DHT22;24957;51.386;-2.352;2022-07-10T13:36:45;27.10;50.60
39255;DHT22;24957;51.386;-2.352;2022-07-10T13:39:14;26.90;52.10
39255;DHT22;24957;51.386;-2.352;2022-07-10T13:41:39;26.90;53.30
39255;DHT22;24957;51.386;-2.352;2022-07-10T13:44:05;26.80;53.30
39255;DHT22;24957;51.386;-2.352;2022-07-10T13:46:30;26.80;53.90
39255;DHT22;24957;51.386;-2.352;2022-07-10T13:48:56;26.80;53.70
39255;DHT22;24957;51.386;-2.352;2022-07-10T13:51:22;26.90;51.10
39255;DHT22;24957;51.386;-2.352;2022-07-10T13:53:47;26.90;54.00
39255;DHT22;24957;51.386;-2.352;2022-07-10T13:56:13;26.90;54.40
39255;DHT22;24957;51.386;-2.352;2022-07-10T13:58:38;26.80;54.10
39255;DHT22;24957;51.386;-2.352;2022-07-10T14:01:04;26.80;54.70
39255;DHT22;24957;51.386;-2.352;2022-07-10T14:03:30;26.80;55.00
39255;DHT22;24957;51.386;-2.352;2022-07-10T14:05:56;26.80;53.20
39255;DHT22;24957;51.386;-2.352;2022-07-10T14:08:22;26.80;53.80
39255;DHT22;24957;51.386;-2.352;2022-07-10T14:10:48;26.90;55.00
39255;DHT22;24957;51.386;-2.352;2022-07-10T14:13:14;27.00;55.20
39255;DHT22;24957;51.386;-2.352;2022-07-10T14:15:39;26.90;54.80
39255;DHT22;24957;51.386;-2.352;2022-07-10T14:18:06;26.80;54.30
39255;DHT22;24957;51.386;-2.352;2022-07-10T14:20:31;26.80;54.60
39255;DHT22;24957;51.386;-2.352;2022-07-10T14:23:20;27.00;55.50
39255;DHT22;24957;51.386;-2.352;2022-07-10T14:25:45;27.10;55.80
39255;DHT22;24957;51.386;-2.352;2022-07-10T14:28:11;27.20;55.10
39255;DHT22;24957;51.386;-2.352;2022-07-10T14:30:41;27.20;53.10
39255;DHT22;24957;51.386;-2.352;2022-07-10T14:33:07;27.10;53.20
39255;DHT22;24957;51.386;-2.352;2022-07-10T14:35:33;27.20;54.60
39255;DHT22;24957;51.386;-2.352;2022-07-10T14:37:59;27.20;54.90
39255;DHT22;24957;51.386;-2.352;2022-07-10T14:40:24;27.10;53.30
39255;DHT22;24957;51.386;-2.352;2022-07-10T14:42:50;27.30;54.30
39255;DHT22;24957;51.386;-2.352;2022-07-10T14:45:15;27.30;55.60
39255;DHT22;24957;51.386;-2.352;2022-07-10T14:47:41;28.30;53.80
39255;DHT22;24957;51.386;-2.352;2022-07-10T14:50:07;30.10;51.90
39255;DHT22;24957;51.386;-2.352;2022-07-10T14:52:33;31.40;50.10
39255;DHT22;24957;51.386;-2.352;2022-07-10T14:54:59;32.30;47.90
39255;DHT22;24957;51.386;-2.352;2022-07-10T14:57:27;33.10;47.00
39255;DHT22;24957;51.386;-2.352;2022-07-10T14:59:52;33.70;45.50
39255;DHT22;24957;51.386;-2.352;2022-07-10T15:02:18;34.50;44.90
39255;DHT22;24957;51.386;-2.352;2022-07-10T15:04:43;36.40;42.00
39255;DHT22;24957;51.386;-2.352;2022-07-10T15:07:09;36.00;40.40
39255;DHT22;24957;51.386;-2.352;2022-07-10T15:09:35;35.90;40.60
39255;DHT22;24957;51.386;-2.352;2022-07-10T15:12:01;36.20;40.20
39255;DHT22;24957;51.386;-2.352;2022-07-10T15:14:26;34.80;40.60
39255;DHT22;24957;51.386;-2.352;2022-07-10T15:16:54;34.10;41.40
39255;DHT22;24957;51.386;-2.352;2022-07-10T15:19:19;33.50;41.20
39255;DHT22;24957;51.386;-2.352;2022-07-10T15:21:45;33.40;42.30
39255;DHT22;24957;51.386;-2.352;2022-07-10T15:24:10;33.50;41.90
39255;DHT22;24957;51.386;-2.352;2022-07-10T15:26:36;33.60;41.00
39255;DHT22;24957;51.386;-2.352;2022-07-10T15:29:01;34.10;41.20
39255;DHT22;24957;51.386;-2.352;2022-07-10T15:31:27;35.10;39.60
39255;DHT22;24957;51.386;-2.352;2022-07-10T15:33:53;35.50;39.10
39255;DHT22;24957;51.386;-2.352;2022-07-10T15:36:18;35.20;40.00
39255;DHT22;24957;51.386;-2.352;2022-07-10T15:38:48;34.50;40.10
39255;DHT22;24957;51.386;-2.352;2022-07-10T15:41:14;34.00;41.00
39255;DHT22;24957;51.386;-2.352;2022-07-10T15:43:39;33.80;40.40
39255;DHT22;24957;51.386;-2.352;2022-07-10T15:46:07;34.00;40.70
39255;DHT22;24957;51.386;-2.352;2022-07-10T15:48:33;35.10;39.90
39255;DHT22;24957;51.386;-2.352;2022-07-10T15:50:59;36.00;38.50